sensor_id;sensor_type;location;lat;lon;timestamp;temperature;humidity
11399;DHT22;5755;48.116;11.608;2022-10-04T00:02:15;7.00;99.90
11399;DHT22;5755;48.116;11.608;2022-10-04T00:04:46;6.90;99.90
11399;DHT22;5755;48.116;11.608;2022-10-04T00:07:18;7.00;99.90
11399;DHT22;5755;48.116;11.608;2022-10-04T00:09:50;7.00;99.90
11399;DHT22;5755;48.116;11.608;2022-10-04T00:12:20;7.30;99.90
11399;DHT22;5755;48.116;11.608;2022-10-04T00:14:52;7.40;99.90
11399;DHT22;5755;48.116;11.608;2022-10-04T00:17:23;7.50;99.90
11399;DHT22;5755;48.116;11.608;2022-10-04T00:19:54;7.60;99.90
11399;DHT22;5755;48.116;11.608;2022-10-04T00:22:23;7.70;99.90
11399;DHT22;5755;48.116;11.608;2022-10-04T00:25:13;7.80;99.90
11399;DHT22;5755;48.116;11.608;2022-10-04T00:31:10;7.90;99.30
11399;DHT22;5755;48.116;11.608;2022-10-04T00:33:39;7.70;99.90
11399;DHT22;5755;48.116;11.608;2022-10-04T00:36:35;7.50;99.90
11399;DHT22;5755;48.116;11.608;2022-10-04T00:39:14;7.40;99.90
11399;DHT22;5755;48.116;11.608;2022-10-04T00:41:56;7.60;99.90
11399;DHT22;5755;48.116;11.608;2022-10-04T00:44:29;7.40;99.90
11399;DHT22;5755;48.116;11.608;2022-10-04T00:47:01;7.30;99.90
11399;DHT22;5755;48.116;11.608;2022-10-04T00:49:33;7.30;99.90
11399;DHT22;5755;48.116;11.608;2022-10-04T00:52:09;7.40;99.90
11399;DHT22;5755;48.116;11.608;2022-10-04T00:54:39;7.50;99.90
11399;DHT22;5755;48.116;11.608;2022-10-04T00:57:10;7.40;99.90
11399;DHT22;5755;48.116;11.608;2022-10-04T00:59:39;7.20;99.90
11399;DHT22;5755;48.116;11.608;2022-10-04T01:02:14;7.10;99.90
11399;DHT22;5755;48.116;11.608;2022-10-04T01:04:46;6.90;99.90
11399;DHT22;5755;48.116;11.608;2022-10-04T01:07:20;6.80;99.90
11399;DHT22;5755;48.116;11.608;2022-10-04T01:09:53;6.90;99.90
11399;DHT22;5755;48.116;11.608;2022-10-04T01:12:35;6.90;99.90
11399;DHT22;5755;48.116;11.608;2022-10-04T01:15:07;6.90;99.90
11399;DHT22;5755;48.116;11.608;2022-10-04T01:17:34;6.80;99.90
11399;DHT22;5755;48.116;11.608;2022-10-04T01:20:02;7.00;99.90
11399;DHT22;5755;48.116;11.608;2022-10-04T01:22:44;7.00;99.90
11399;DHT22;5755;48.116;11.608;2022-10-04T01:25:42;6.80;99.90
11399;DHT22;5755;48.116;11.608;2022-10-04T01:28:09;6.60;99.90
11399;DHT22;5755;48.116;11.608;2022-10-04T01:30:36;6.50;99.90
11399;DHT22;5755;48.116;11.608;2022-10-04T01:33:03;6.50;99.90
11399;DHT22;5755;48.116;11.608;2022-10-04T01:35:31;6.60;99.90
11399;DHT22;5755;48.116;11.608;2022-10-04T01:38:02;6.50;99.90
11399;DHT22;5755;48.116;11.608;2022-10-04T01:40:31;6.40;99.90
11399;DHT22;5755;48.116;11.608;2022-10-04T01:43:01;6.40;99.90
11399;DHT22;5755;48.116;11.608;2022-10-04T01:45:37;6.40;99.90
11399;DHT22;5755;48.116;11.608;2022-10-04T01:48:08;6.30;99.90
11399;DHT22;5755;48.116;11.608;2022-10-04T01:50:38;6.20;99.90
11399;DHT22;5755;48.116;11.608;2022-10-04T01:53:12;6.20;99.90
11399;DHT22;5755;48.116;11.608;2022-10-04T01:55:49;6.10;99.90
11399;DHT22;5755;48.116;11.608;2022-10-04T01:58:18;6.10;99.90
11399;DHT22;5755;48.116;11.608;2022-10-04T02:00:50;6.10;99.90
11399;DHT22;5755;48.116;11.608;2022-10-04T02:03:21;6.30;99.90
11399;DHT22;5755;48.116;11.608;2022-10-04T02:05:51;6.30;99.90
11399;DHT22;5755;48.116;11.608;2022-10-04T02:08:26;6.30;99.90
11399;DHT22;5755;48.116;11.608;2022-10-04T02:10:55;6.20;99.90
11399;DHT22;5755;48.116;11.608;2022-10-04T02:13:24;6.00;99.90
11399;DHT22;5755;48.116;11.608;2022-10-04T02:15:54;6.00;99.90
11399;DHT22;5755;48.116;11.608;2022-10-04T02:18:23;6.00;99.90
11399;DHT22;5755;48.116;11.608;2022-10-04T02:20:52;5.90;99.90
11399;DHT22;5755;48.116;11.608;2022-10-04T02:23:21;5.90;99.90
11399;DHT22;5755;48.116;11.608;2022-10-04T02:25:50;6.10;99.90
11399;DHT22;5755;48.116;11.608;2022-10-04T02:28:17;6.10;99.90
11399;DHT22;5755;48.116;11.608;2022-10-04T02:30:47;6.00;99.90
11399;DHT22;5755;48.116;11.608;2022-10-04T02:33:29;5.90;99.90
11399;DHT22;5755;48.116;11.608;2022-10-04T02:35:56;5.90;99.90
11399;DHT22;5755;48.116;11.608;2022-10-04T02:38:29;5.80;99.90
11399;DHT22;5755;48.116;11.608;2022-10-04T02:41:04;5.70;99.90
11399;DHT22;5755;48.116;11.608;2022-10-04T02:43:35;5.70;99.90
11399;DHT22;5755;48.116;11.608;2022-10-04T02:46:06;5.60;99.90
11399;DHT22;5755;48.116;11.608;2022-10-04T02:48:43;5.60;99.90
11399;DHT22;5755;48.116;11.608;2022-10-04T02:51:17;5.60;99.90
11399;DHT22;5755;48.116;11.608;2022-10-04T02:54:00;5.70;99.90
11399;DHT22;5755;48.116;11.608;2022-10-04T02:56:30;5.70;99.90
11399;DHT22;5755;48.116;11.608;2022-10-04T02:59:00;5.70;99.90
11399;DHT22;5755;48.116;11.608;2022-10-04T03:01:40;5.70;99.90
11399;DHT22;5755;48.116;11.608;2022-10-04T03:04:10;5.70;99.90
11399;DHT22;5755;48.116;11.608;2022-10-04T03:06:38;5.60;99.90
11399;DHT22;5755;48.116;11.608;2022-10-04T03:09:06;5.60;99.90
11399;DHT22;5755;48.116;11.608;2022-10-04T03:11:36;5.60;99.90
11399;DHT22;5755;48.116;11.608;2022-10-04T03:14:08;5.70;99.90
11399;DHT22;5755;48.116;11.608;2022-10-04T03:16:37;5.80;99.90
11399;DHT22;5755;48.116;11.608;2022-10-04T03:19:06;5.70;99.90
11399;DHT22;5755;48.116;11.608;2022-10-04T03:21:36;5.60;99.90
11399;DHT22;5755;48.116;11.608;2022-10-04T03:24:05;5.50;99.90
11399;DHT22;5755;48.116;11.608;2022-10-04T03:26:37;5.40;99.90
11399;DHT22;5755;48.116;11.608;2022-10-04T03:29:06;5.40;99.90
11399;DHT22;5755;48.116;11.608;2022-10-04T03:31:38;5.40;99.90
11399;DHT22;5755;48.116;11.608;2022-10-04T03:34:12;5.30;99.90
11399;DHT22;5755;48.116;11.608;2022-10-04T03:36:40;5.30;99.90
11399;DHT22;5755;48.116;11.608;2022-10-04T03:39:10;5.50;99.90
11399;DHT22;5755;48.116;11.608;2022-10-04T03:41:39;5.60;99.90
11399;DHT22;5755;48.116;11.608;2022-10-04T03:44:12;5.60;99.90
11399;DHT22;5755;48.116;11.608;2022-10-04T03:46:41;5.50;99.90
11399;DHT22;5755;48.116;11.608;2022-10-04T03:49:11;5.50;99.90
11399;DHT22;5755;48.116;11.608;2022-10-04T03:51:43;5.50;99.90
11399;DHT22;5755;48.116;11.608;2022-10-04T03:54:15;5.60;99.90
11399;DHT22;5755;48.116;11.608;2022-10-04T03:56:52;5.60;99.90
11399;DHT22;5755;48.116;11.608;2022-10-04T03:59:22;5.40;99.90
11399;DHT22;5755;48.116;11.608;2022-10-04T04:02:02;5.40;99.90
11399;DHT22;5755;48.116;11.608;2022-10-04T04:04:37;5.50;99.90
11399;DHT22;5755;48.116;11.608;2022-10-04T04:07:10;5.30;99.90
11399;DHT22;5755;48.116;11.608;2022-10-04T04:09:43;5.30;99.90
11399;DHT22;5755;48.116;11.608;2022-10-04T04:12:17;5.30;99.90
11399;DHT22;5755;48.116;11.608;2022-10-04T04:14:46;5.30;99.90
11399;DHT22;5755;48.116;11.608;2022-10-04T04:17:32;5.40;99.90
11399;DHT22;5755;48.116;11.608;2022-10-04T04:20:04;5.30;99.90
11399;DHT22;5755;48.116;11.608;2022-10-04T04:22:33;5.20;99.90
11399;DHT22;5755;48.116;11.608;2022-10-04T04:25:05;5.10;99.90
11399;DHT22;5755;48.116;11.608;2022-10-04T04:27:39;5.10;99.90
11399;DHT22;5755;48.116;11.608;2022-10-04T04:30:11;5.10;99.90
11399;DHT22;5755;48.116;11.608;2022-10-04T04:35:53;5.10;99.90
11399;DHT22;5755;48.116;11.608;2022-10-04T04:38:33;5.10;99.90
11399;DHT22;5755;48.116;11.608;2022-10-04T04:41:33;5.10;99.90
11399;DHT22;5755;48.116;11.608;2022-10-04T04:44:15;5.10;99.90
11399;DHT22;5755;48.116;11.608;2022-10-04T04:47:04;5.20;99.90
11399;DHT22;5755;48.116;11.608;2022-10-04T04:49:52;5.20;99.90
11399;DHT22;5755;48.116;11.608;2022-10-04T04:52:24;5.20;99.90
11399;DHT22;5755;48.116;11.608;2022-10-04T04:55:15;5.20;99.90
11399;DHT22;5755;48.116;11.608;2022-10-04T04:58:03;5.40;99.90
11399;DHT22;5755;48.116;11.608;2022-10-04T05:00:41;5.40;99.90
11399;DHT22;5755;48.116;11.608;2022-10-04T05:03:39;5.30;99.90
11399;DHT22;5755;48.116;11.608;2022-10-04T05:06:23;5.30;99.90
11399;DHT22;5755;48.116;11.608;2022-10-04T05:09:03;5.20;99.90
11399;DHT22;5755;48.116;11.608;2022-10-04T05:12:04;5.30;99.90
11399;DHT22;5755;48.116;11.608;2022-10-04T05:14:47;5.40;99.90
11399;DHT22;5755;48.116;11.608;2022-10-04T05:17:19;5.40;99.90
11399;DHT22;5755;48.116;11.608;2022-10-04T05:19:59;5.30;99.90
11399;DHT22;5755;48.116;11.608;2022-10-04T05:22:30;5.20;99.90
11399;DHT22;5755;48.116;11.608;2022-10-04T05:25:25;5.50;99.90
11399;DHT22;5755;48.116;11.608;2022-10-04T05:28:27;6.20;99.90
11399;DHT22;5755;48.116;11.608;2022-10-04T05:31:10;6.20;99.90
11399;DHT22;5755;48.116;11.608;2022-10-04T05:33:48;5.90;99.80
11399;DHT22;5755;48.116;11.608;2022-10-04T05:36:42;5.80;99.90
11399;DHT22;5755;48.116;11.608;2022-10-04T05:39:22;5.70;99.90
11399;DHT22;5755;48.116;11.608;2022-10-04T05:41:56;6.20;99.90
11399;DHT22;5755;48.116;11.608;2022-10-04T05:44:30;6.30;99.90
11399;DHT22;5755;48.116;11.608;2022-10-04T05:47:01;6.30;99.90
11399;DHT22;5755;48.116;11.608;2022-10-04T05:49:35;6.50;99.90
11399;DHT22;5755;48.116;11.608;2022-10-04T05:52:14;6.60;99.90
11399;DHT22;5755;48.116;11.608;2022-10-04T05:54:42;6.40;99.30
11399;DHT22;5755;48.116;11.608;2022-10-04T05:57:30;6.30;99.60
11399;DHT22;5755;48.116;11.608;2022-10-04T06:00:13;6.40;99.90
11399;DHT22;5755;48.116;11.608;2022-10-04T06:05:43;6.80;99.90
11399;DHT22;5755;48.116;11.608;2022-10-04T06:08:23;6.90;99.90
11399;DHT22;5755;48.116;11.608;2022-10-04T06:11:04;7.10;99.90
11399;DHT22;5755;48.116;11.608;2022-10-04T06:14:04;7.10;99.50
11399;DHT22;5755;48.116;11.608;2022-10-04T06:16:52;7.00;99.00
11399;DHT22;5755;48.116;11.608;2022-10-04T06:22:26;7.20;99.90
11399;DHT22;5755;48.116;11.608;2022-10-04T06:24:59;7.40;99.30
11399;DHT22;5755;48.116;11.608;2022-10-04T06:27:31;7.60;99.60
11399;DHT22;5755;48.116;11.608;2022-10-04T06:30:04;7.70;99.70
11399;DHT22;5755;48.116;11.608;2022-10-04T06:32:58;7.90;99.40
11399;DHT22;5755;48.116;11.608;2022-10-04T06:35:53;8.10;99.10
11399;DHT22;5755;48.116;11.608;2022-10-04T06:38:45;8.10;98.60
11399;DHT22;5755;48.116;11.608;2022-10-04T06:41:24;7.90;98.60
11399;DHT22;5755;48.116;11.608;2022-10-04T06:44:13;7.90;99.20
11399;DHT22;5755;48.116;11.608;2022-10-04T06:46:46;7.80;99.10
11399;DHT22;5755;48.116;11.608;2022-10-04T06:49:32;7.90;99.90
11399;DHT22;5755;48.116;11.608;2022-10-04T06:52:21;8.10;99.60
11399;DHT22;5755;48.116;11.608;2022-10-04T06:58:16;8.40;99.20
11399;DHT22;5755;48.116;11.608;2022-10-04T07:00:53;8.50;98.40
11399;DHT22;5755;48.116;11.608;2022-10-04T07:03:38;8.40;98.40
11399;DHT22;5755;48.116;11.608;2022-10-04T07:06:07;8.40;99.30
11399;DHT22;5755;48.116;11.608;2022-10-04T07:08:39;8.60;99.30
11399;DHT22;5755;48.116;11.608;2022-10-04T07:11:15;8.80;98.10
11399;DHT22;5755;48.116;11.608;2022-10-04T07:13:50;9.10;98.50
11399;DHT22;5755;48.116;11.608;2022-10-04T07:16:41;9.10;97.30
11399;DHT22;5755;48.116;11.608;2022-10-04T07:19:25;9.40;97.00
11399;DHT22;5755;48.116;11.608;2022-10-04T07:21:59;9.40;97.20
11399;DHT22;5755;48.116;11.608;2022-10-04T07:24:42;9.40;97.00
11399;DHT22;5755;48.116;11.608;2022-10-04T07:27:16;9.40;97.60
11399;DHT22;5755;48.116;11.608;2022-10-04T07:29:44;9.30;97.60
11399;DHT22;5755;48.116;11.608;2022-10-04T07:32:20;9.60;97.50
11399;DHT22;5755;48.116;11.608;2022-10-04T07:34:51;9.80;97.30
11399;DHT22;5755;48.116;11.608;2022-10-04T07:37:20;9.80;96.60
11399;DHT22;5755;48.116;11.608;2022-10-04T07:39:53;10.00;95.90
11399;DHT22;5755;48.116;11.608;2022-10-04T07:42:31;10.10;95.80
11399;DHT22;5755;48.116;11.608;2022-10-04T07:45:11;10.10;96.30
11399;DHT22;5755;48.116;11.608;2022-10-04T07:47:40;10.10;95.70
11399;DHT22;5755;48.116;11.608;2022-10-04T07:50:29;10.30;96.40
11399;DHT22;5755;48.116;11.608;2022-10-04T07:53:03;10.60;96.10
11399;DHT22;5755;48.116;11.608;2022-10-04T07:55:43;10.90;95.80
11399;DHT22;5755;48.116;11.608;2022-10-04T07:58:32;11.00;95.30
11399;DHT22;5755;48.116;11.608;2022-10-04T08:01:08;11.10;94.40
11399;DHT22;5755;48.116;11.608;2022-10-04T08:03:54;11.20;94.60
11399;DHT22;5755;48.116;11.608;2022-10-04T08:06:34;11.20;95.40
11399;DHT22;5755;48.116;11.608;2022-10-04T08:09:21;11.30;95.20
11399;DHT22;5755;48.116;11.608;2022-10-04T08:11:59;11.30;94.00
11399;DHT22;5755;48.116;11.608;2022-10-04T08:14:38;11.60;94.30
11399;DHT22;5755;48.116;11.608;2022-10-04T08:17:19;11.60;94.50
11399;DHT22;5755;48.116;11.608;2022-10-04T08:20:04;11.80;93.50
11399;DHT22;5755;48.116;11.608;2022-10-04T08:22:49;11.90;93.10
11399;DHT22;5755;48.116;11.608;2022-10-04T08:25:26;12.00;93.00
11399;DHT22;5755;48.116;11.608;2022-10-04T08:28:01;12.10;93.10
11399;DHT22;5755;48.116;11.608;2022-10-04T08:31:07;12.00;92.70
11399;DHT22;5755;48.116;11.608;2022-10-04T08:33:57;12.30;93.20
11399;DHT22;5755;48.116;11.608;2022-10-04T08:36:38;12.40;93.10
11399;DHT22;5755;48.116;11.608;2022-10-04T08:39:23;12.60;91.90
11399;DHT22;5755;48.116;11.608;2022-10-04T08:51:50;13.10;91.00
11399;DHT22;5755;48.116;11.608;2022-10-04T09:00:44;13.70;90.20
11399;DHT22;5755;48.116;11.608;2022-10-04T09:03:54;14.00;90.00
11399;DHT22;5755;48.116;11.608;2022-10-04T09:06:37;14.50;84.60
11399;DHT22;5755;48.116;11.608;2022-10-04T09:09:38;14.80;81.60
11399;DHT22;5755;48.116;11.608;2022-10-04T09:15:52;15.60;73.00
11399;DHT22;5755;48.116;11.608;2022-10-04T09:18:49;16.20;62.30
11399;DHT22;5755;48.116;11.608;2022-10-04T09:21:26;16.50;62.60
11399;DHT22;5755;48.116;11.608;2022-10-04T09:24:11;16.90;53.10
11399;DHT22;5755;48.116;11.608;2022-10-04T09:26:57;17.10;52.20
11399;DHT22;5755;48.116;11.608;2022-10-04T09:29:45;17.40;47.00
11399;DHT22;5755;48.116;11.608;2022-10-04T09:32:40;17.10;45.90
11399;DHT22;5755;48.116;11.608;2022-10-04T09:35:45;16.50;50.80
11399;DHT22;5755;48.116;11.608;2022-10-04T09:38:46;16.50;50.00
11399;DHT22;5755;48.116;11.608;2022-10-04T09:44:51;16.40;52.60
11399;DHT22;5755;48.116;11.608;2022-10-04T09:47:30;17.00;47.60
11399;DHT22;5755;48.116;11.608;2022-10-04T09:50:33;17.00;46.30
11399;DHT22;5755;48.116;11.608;2022-10-04T09:53:20;17.00;45.30
11399;DHT22;5755;48.116;11.608;2022-10-04T09:56:13;17.10;46.50
11399;DHT22;5755;48.116;11.608;2022-10-04T09:58:57;17.70;43.30
11399;DHT22;5755;48.116;11.608;2022-10-04T10:01:36;17.80;43.00
11399;DHT22;5755;48.116;11.608;2022-10-04T10:04:26;17.90;42.70
11399;DHT22;5755;48.116;11.608;2022-10-04T10:07:16;17.70;45.70
11399;DHT22;5755;48.116;11.608;2022-10-04T10:09:57;17.60;39.80
11399;DHT22;5755;48.116;11.608;2022-10-04T10:13:18;17.30;44.30
11399;DHT22;5755;48.116;11.608;2022-10-04T10:16:23;17.30;42.90
11399;DHT22;5755;48.116;11.608;2022-10-04T10:19:12;17.20;45.00
11399;DHT22;5755;48.116;11.608;2022-10-04T10:21:54;16.80;48.00
11399;DHT22;5755;48.116;11.608;2022-10-04T10:24:35;16.80;45.30
11399;DHT22;5755;48.116;11.608;2022-10-04T10:27:22;16.50;48.30
11399;DHT22;5755;48.116;11.608;2022-10-04T10:36:14;16.20;56.20
11399;DHT22;5755;48.116;11.608;2022-10-04T10:38:53;16.20;53.10
11399;DHT22;5755;48.116;11.608;2022-10-04T10:41:52;16.50;52.70
11399;DHT22;5755;48.116;11.608;2022-10-04T10:44:32;16.90;49.70
11399;DHT22;5755;48.116;11.608;2022-10-04T10:47:16;16.80;49.70
11399;DHT22;5755;48.116;11.608;2022-10-04T10:50:01;16.60;52.80
11399;DHT22;5755;48.116;11.608;2022-10-04T10:56:21;16.70;55.60
11399;DHT22;5755;48.116;11.608;2022-10-04T10:59:26;16.50;60.00
11399;DHT22;5755;48.116;11.608;2022-10-04T11:02:18;17.00;49.20
11399;DHT22;5755;48.116;11.608;2022-10-04T11:05:17;17.20;52.50
11399;DHT22;5755;48.116;11.608;2022-10-04T11:07:52;17.10;47.00
11399;DHT22;5755;48.116;11.608;2022-10-04T11:10:41;17.40;44.40
11399;DHT22;5755;48.116;11.608;2022-10-04T11:13:55;17.40;40.90
11399;DHT22;5755;48.116;11.608;2022-10-04T11:16:53;17.10;42.10
11399;DHT22;5755;48.116;11.608;2022-10-04T11:23:02;16.90;53.10
11399;DHT22;5755;48.116;11.608;2022-10-04T11:26:17;17.10;46.90
11399;DHT22;5755;48.116;11.608;2022-10-04T11:28:58;17.30;45.40
11399;DHT22;5755;48.116;11.608;2022-10-04T11:32:14;17.30;43.90
11399;DHT22;5755;48.116;11.608;2022-10-04T11:38:10;17.10;41.50
11399;DHT22;5755;48.116;11.608;2022-10-04T11:41:06;17.10;39.80
11399;DHT22;5755;48.116;11.608;2022-10-04T11:44:10;17.00;39.50
11399;DHT22;5755;48.116;11.608;2022-10-04T11:46:49;16.70;37.90
11399;DHT22;5755;48.116;11.608;2022-10-04T11:49:35;16.50;41.40
11399;DHT22;5755;48.116;11.608;2022-10-04T11:52:43;16.60;42.20
11399;DHT22;5755;48.116;11.608;2022-10-04T11:58:30;16.50;47.70
11399;DHT22;5755;48.116;11.608;2022-10-04T12:01:22;16.50;54.90
11399;DHT22;5755;48.116;11.608;2022-10-04T12:04:17;16.30;45.10
11399;DHT22;5755;48.116;11.608;2022-10-04T12:07:18;16.30;47.40
11399;DHT22;5755;48.116;11.608;2022-10-04T12:09:58;16.40;52.70
11399;DHT22;5755;48.116;11.608;2022-10-04T12:12:52;16.60;50.00
11399;DHT22;5755;48.116;11.608;2022-10-04T12:15:52;16.60;50.00
11399;DHT22;5755;48.116;11.608;2022-10-04T12:18:57;16.60;51.60
11399;DHT22;5755;48.116;11.608;2022-10-04T12:22:07;16.70;53.10
11399;DHT22;5755;48.116;11.608;2022-10-04T12:28:16;17.30;45.10
11399;DHT22;5755;48.116;11.608;2022-10-04T12:31:07;17.40;42.80
11399;DHT22;5755;48.116;11.608;2022-10-04T12:33:43;17.60;41.60
11399;DHT22;5755;48.116;11.608;2022-10-04T12:36:29;17.50;42.20
11399;DHT22;5755;48.116;11.608;2022-10-04T12:39:25;17.50;43.30
11399;DHT22;5755;48.116;11.608;2022-10-04T12:42:10;17.40;41.90
11399;DHT22;5755;48.116;11.608;2022-10-04T12:44:50;17.20;46.00
11399;DHT22;5755;48.116;11.608;2022-10-04T12:47:44;17.30;41.30
11399;DHT22;5755;48.116;11.608;2022-10-04T12:50:25;17.20;42.60
11399;DHT22;5755;48.116;11.608;2022-10-04T12:53:08;17.20;46.30
11399;DHT22;5755;48.116;11.608;2022-10-04T12:56:05;17.10;45.40
11399;DHT22;5755;48.116;11.608;2022-10-04T12:58:45;17.20;42.30
11399;DHT22;5755;48.116;11.608;2022-10-04T13:01:28;17.20;40.50
11399;DHT22;5755;48.116;11.608;2022-10-04T13:04:08;16.90;42.50
11399;DHT22;5755;48.116;11.608;2022-10-04T13:06:48;16.80;43.00
11399;DHT22;5755;48.116;11.608;2022-10-04T13:09:31;16.70;44.50
11399;DHT22;5755;48.116;11.608;2022-10-04T13:12:14;16.60;50.10
11399;DHT22;5755;48.116;11.608;2022-10-04T13:15:17;16.40;52.60
11399;DHT22;5755;48.116;11.608;2022-10-04T13:18:02;16.50;52.70
11399;DHT22;5755;48.116;11.608;2022-10-04T13:20:44;16.40;52.60
11399;DHT22;5755;48.116;11.608;2022-10-04T13:23:35;16.50;48.80
11399;DHT22;5755;48.116;11.608;2022-10-04T13:26:22;16.50;48.70
11399;DHT22;5755;48.116;11.608;2022-10-04T13:29:10;16.50;52.70
11399;DHT22;5755;48.116;11.608;2022-10-04T13:31:46;16.40;52.70
11399;DHT22;5755;48.116;11.608;2022-10-04T13:34:23;16.40;50.40
11399;DHT22;5755;48.116;11.608;2022-10-04T13:37:14;16.40;51.80
11399;DHT22;5755;48.116;11.608;2022-10-04T13:40:01;16.50;51.70
11399;DHT22;5755;48.116;11.608;2022-10-04T13:42:56;16.50;48.40
11399;DHT22;5755;48.116;11.608;2022-10-04T13:45:51;16.50;48.20
11399;DHT22;5755;48.116;11.608;2022-10-04T13:48:32;16.50;52.70
11399;DHT22;5755;48.116;11.608;2022-10-04T13:51:27;16.60;49.00
11399;DHT22;5755;48.116;11.608;2022-10-04T13:54:09;16.50;50.10
11399;DHT22;5755;48.116;11.608;2022-10-04T13:57:11;16.60;49.70
11399;DHT22;5755;48.116;11.608;2022-10-04T14:00:03;16.50;49.90
11399;DHT22;5755;48.116;11.608;2022-10-04T14:02:45;16.50;49.30
11399;DHT22;5755;48.116;11.608;2022-10-04T14:05:41;16.50;49.60
11399;DHT22;5755;48.116;11.608;2022-10-04T14:08:35;16.60;49.50
11399;DHT22;5755;48.116;11.608;2022-10-04T14:17:18;16.80;44.20
11399;DHT22;5755;48.116;11.608;2022-10-04T14:20:29;16.60;46.80
11399;DHT22;5755;48.116;11.608;2022-10-04T14:23:37;16.70;43.60
11399;DHT22;5755;48.116;11.608;2022-10-04T14:29:44;16.60;42.70
11399;DHT22;5755;48.116;11.608;2022-10-04T14:32:48;16.70;44.10
11399;DHT22;5755;48.116;11.608;2022-10-04T14:35:38;16.40;44.30
11399;DHT22;5755;48.116;11.608;2022-10-04T14:38:44;16.40;46.30
11399;DHT22;5755;48.116;11.608;2022-10-04T14:41:37;16.40;45.10
11399;DHT22;5755;48.116;11.608;2022-10-04T14:47:30;16.30;44.60
11399;DHT22;5755;48.116;11.608;2022-10-04T14:50:19;16.30;48.20
11399;DHT22;5755;48.116;11.608;2022-10-04T14:53:07;16.30;47.10
11399;DHT22;5755;48.116;11.608;2022-10-04T14:56:04;16.30;48.20
11399;DHT22;5755;48.116;11.608;2022-10-04T14:58:40;16.40;47.20
11399;DHT22;5755;48.116;11.608;2022-10-04T15:01:23;16.40;46.60
11399;DHT22;5755;48.116;11.608;2022-10-04T15:06:55;16.20;47.30
11399;DHT22;5755;48.116;11.608;2022-10-04T15:09:41;16.10;47.50
11399;DHT22;5755;48.116;11.608;2022-10-04T15:12:37;16.10;49.30
11399;DHT22;5755;48.116;11.608;2022-10-04T15:18:36;16.10;52.30
11399;DHT22;5755;48.116;11.608;2022-10-04T15:21:28;16.00;52.30
11399;DHT22;5755;48.116;11.608;2022-10-04T15:24:21;16.00;52.30
11399;DHT22;5755;48.116;11.608;2022-10-04T15:27:21;16.00;52.30
11399;DHT22;5755;48.116;11.608;2022-10-04T15:29:58;15.90;52.20
11399;DHT22;5755;48.116;11.608;2022-10-04T15:32:44;15.90;56.10
11399;DHT22;5755;48.116;11.608;2022-10-04T15:35:25;15.80;59.10
11399;DHT22;5755;48.116;11.608;2022-10-04T15:37:58;15.80;57.10
11399;DHT22;5755;48.116;11.608;2022-10-04T15:40:47;15.70;57.00
11399;DHT22;5755;48.116;11.608;2022-10-04T15:43:33;15.50;57.60
11399;DHT22;5755;48.116;11.608;2022-10-04T15:46:37;15.40;58.00
11399;DHT22;5755;48.116;11.608;2022-10-04T15:52:17;15.30;67.30
11399;DHT22;5755;48.116;11.608;2022-10-04T15:55:20;15.30;66.70
11399;DHT22;5755;48.116;11.608;2022-10-04T15:58:14;15.20;68.30
11399;DHT22;5755;48.116;11.608;2022-10-04T16:00:58;15.10;72.60
11399;DHT22;5755;48.116;11.608;2022-10-04T16:03:38;15.00;71.00
11399;DHT22;5755;48.116;11.608;2022-10-04T16:06:10;14.90;72.50
11399;DHT22;5755;48.116;11.608;2022-10-04T16:09:07;14.80;75.80
11399;DHT22;5755;48.116;11.608;2022-10-04T16:11:56;14.70;76.50
11399;DHT22;5755;48.116;11.608;2022-10-04T16:14:53;14.70;75.90
11399;DHT22;5755;48.116;11.608;2022-10-04T16:17:53;14.60;77.00
11399;DHT22;5755;48.116;11.608;2022-10-04T16:20:48;14.50;81.00
11399;DHT22;5755;48.116;11.608;2022-10-04T16:23:30;14.40;82.90
11399;DHT22;5755;48.116;11.608;2022-10-04T16:29:15;14.30;88.50
11399;DHT22;5755;48.116;11.608;2022-10-04T16:31:55;14.20;89.10
11399;DHT22;5755;48.116;11.608;2022-10-04T16:34:44;14.20;89.00
11399;DHT22;5755;48.116;11.608;2022-10-04T16:37:25;14.10;90.60
11399;DHT22;5755;48.116;11.608;2022-10-04T16:40:19;14.00;90.90
11399;DHT22;5755;48.116;11.608;2022-10-04T16:43:10;13.90;90.90
11399;DHT22;5755;48.116;11.608;2022-10-04T16:46:11;13.70;91.20
11399;DHT22;5755;48.116;11.608;2022-10-04T16:48:52;13.50;91.50
11399;DHT22;5755;48.116;11.608;2022-10-04T16:51:43;13.50;92.30
11399;DHT22;5755;48.116;11.608;2022-10-04T16:54:33;13.40;92.30
11399;DHT22;5755;48.116;11.608;2022-10-04T16:57:14;13.20;92.50
11399;DHT22;5755;48.116;11.608;2022-10-04T16:59:46;13.10;92.90
11399;DHT22;5755;48.116;11.608;2022-10-04T17:02:43;13.00;93.60
11399;DHT22;5755;48.116;11.608;2022-10-04T17:05:45;13.00;93.70
11399;DHT22;5755;48.116;11.608;2022-10-04T17:11:39;12.70;94.40
11399;DHT22;5755;48.116;11.608;2022-10-04T17:14:41;12.70;94.70
11399;DHT22;5755;48.116;11.608;2022-10-04T17:17:40;12.60;95.10
11399;DHT22;5755;48.116;11.608;2022-10-04T17:20:43;12.50;95.40
11399;DHT22;5755;48.116;11.608;2022-10-04T17:26:40;12.40;96.30
11399;DHT22;5755;48.116;11.608;2022-10-04T17:29:33;12.40;96.60
11399;DHT22;5755;48.116;11.608;2022-10-04T17:32:17;12.40;96.30
11399;DHT22;5755;48.116;11.608;2022-10-04T17:35:15;12.30;96.30
11399;DHT22;5755;48.116;11.608;2022-10-04T17:37:54;12.20;96.20
11399;DHT22;5755;48.116;11.608;2022-10-04T17:40:47;12.20;96.30
11399;DHT22;5755;48.116;11.608;2022-10-04T17:43:29;12.10;96.50
11399;DHT22;5755;48.116;11.608;2022-10-04T17:46:13;12.10;96.80
11399;DHT22;5755;48.116;11.608;2022-10-04T17:48:45;12.00;97.10
11399;DHT22;5755;48.116;11.608;2022-10-04T17:51:42;11.90;97.20
11399;DHT22;5755;48.116;11.608;2022-10-04T17:54:53;11.90;97.80
11399;DHT22;5755;48.116;11.608;2022-10-04T17:57:57;11.80;97.80
11399;DHT22;5755;48.116;11.608;2022-10-04T18:00:51;11.80;98.10
11399;DHT22;5755;48.116;11.608;2022-10-04T18:03:24;11.90;98.10
11399;DHT22;5755;48.116;11.608;2022-10-04T18:05:55;11.80;98.00
11399;DHT22;5755;48.116;11.608;2022-10-04T18:08:38;11.70;98.10
11399;DHT22;5755;48.116;11.608;2022-10-04T18:11:19;11.60;98.20
11399;DHT22;5755;48.116;11.608;2022-10-04T18:14:01;11.50;98.40
11399;DHT22;5755;48.116;11.608;2022-10-04T18:16:40;11.50;98.70
11399;DHT22;5755;48.116;11.608;2022-10-04T18:19:34;11.50;98.70
11399;DHT22;5755;48.116;11.608;2022-10-04T18:22:09;11.40;98.90
11399;DHT22;5755;48.116;11.608;2022-10-04T18:24:36;11.40;99.00
11399;DHT22;5755;48.116;11.608;2022-10-04T18:27:15;11.40;99.10
11399;DHT22;5755;48.116;11.608;2022-10-04T18:29:56;11.30;99.20
11399;DHT22;5755;48.116;11.608;2022-10-04T18:32:35;11.30;99.30
11399;DHT22;5755;48.116;11.608;2022-10-04T18:35:24;11.30;99.30
11399;DHT22;5755;48.116;11.608;2022-10-04T18:37:53;11.20;99.50
11399;DHT22;5755;48.116;11.608;2022-10-04T18:40:26;11.10;99.70
11399;DHT22;5755;48.116;11.608;2022-10-04T18:42:59;11.00;99.80
11399;DHT22;5755;48.116;11.608;2022-10-04T18:45:28;11.00;99.90
11399;DHT22;5755;48.116;11.608;2022-10-04T18:47:58;11.00;99.90